Time;durP1;ratioP1;P1;durP2;ratioP2;P2;SDS_P1;SDS_P2;PMS_P1;PMS_P2;Temp;Humidity;BMP_temperature;BMP_pressure;BME280_temperature;BME280_humidity;BME280_pressure;Samples;Min_cycle;Max_cycle;Signal;HPM_P1;HPM_P2
2023/05/12 00:02:22;;;;;;;44.40;19.58;;;10.70;99.90;;;;;;5096836;28;20054;-24
2023/05/12 00:04:48;;;;;;;48.53;21.77;;;10.60;99.90;;;;;;5096713;28;20490;-24
2023/05/12 00:07:13;;;;;;;45.03;20.88;;;10.70;99.90;;;;;;5095209;28;20048;-25
2023/05/12 00:09:40;;;;;;;47.00;20.98;;;10.60;99.90;;;;;;5095694;28;20089;-24
2023/05/12 00:12:07;;;;;;;46.70;18.92;;;10.70;99.90;;;;;;5096603;28;20130;-25
2023/05/12 00:14:36;;;;;;;48.42;20.60;;;10.70;99.90;;;;;;5096574;28;20085;-25
2023/05/12 00:17:03;;;;;;;47.72;20.23;;;10.70;99.90;;;;;;5096510;28;20079;-25
2023/05/12 00:19:29;;;;;;;48.78;19.88;;;10.70;99.90;;;;;;5096535;28;20044;-25
2023/05/12 00:21:55;;;;;;;47.00;21.58;;;10.70;99.90;;;;;;5096961;28;20044;-26
2023/05/12 00:24:21;;;;;;;49.03;21.75;;;10.70;99.90;;;;;;5096650;28;20127;-26
2023/05/12 00:26:47;;;;;;;50.97;22.33;;;10.70;99.90;;;;;;5096320;28;20048;-26
2023/05/12 00:29:13;;;;;;;59.65;23.40;;;10.70;99.90;;;;;;5096840;28;20040;-26
2023/05/12 00:31:38;;;;;;;51.42;23.20;;;10.80;99.90;;;;;;5095306;28;20044;-26
2023/05/12 00:34:04;;;;;;;44.42;21.38;;;10.70;99.90;;;;;;5096036;28;20040;-26
2023/05/12 00:36:30;;;;;;;48.47;21.90;;;10.70;99.90;;;;;;5095438;28;20081;-26
2023/05/12 00:38:57;;;;;;;52.17;22.48;;;10.70;99.90;;;;;;5096413;28;20126;-26
2023/05/12 00:41:23;;;;;;;53.30;22.85;;;10.80;99.90;;;;;;5096031;28;20127;-26
2023/05/12 00:43:49;;;;;;;59.10;22.95;;;10.80;99.90;;;;;;5096203;28;20122;-26
2023/05/12 00:46:15;;;;;;;54.15;22.88;;;10.70;99.90;;;;;;5095261;28;20048;-26
2023/05/12 00:48:41;;;;;;;54.95;23.85;;;10.70;99.90;;;;;;5094702;28;20048;-26
2023/05/12 00:51:07;;;;;;;66.57;24.73;;;10.70;99.90;;;;;;5095807;28;20101;-26
2023/05/12 00:53:34;;;;;;;64.43;25.20;;;10.80;99.90;;;;;;5096378;28;20044;-26
2023/05/12 00:56:00;;;;;;;62.78;26.23;;;10.80;99.90;;;;;;5095620;28;20078;-26
2023/05/12 00:58:25;;;;;;;68.55;27.30;;;10.90;99.90;;;;;;5095725;28;20052;-26
2023/05/12 01:00:51;;;;;;;69.80;28.13;;;10.90;99.90;;;;;;5077833;28;20086;-26
2023/05/12 01:03:17;;;;;;;78.00;30.80;;;10.90;99.90;;;;;;5095532;28;20075;-27
2023/05/12 01:06:00;;;;;;;76.95;29.23;;;10.90;99.90;;;;;;5096133;28;20113;-26
2023/05/12 01:08:26;;;;;;;93.47;31.15;;;10.90;99.90;;;;;;5096214;28;20048;-26
2023/05/12 01:10:52;;;;;;;87.88;30.73;;;10.80;99.90;;;;;;5095481;28;20068;-26
2023/05/12 01:13:18;;;;;;;93.22;30.83;;;10.80;99.90;;;;;;5095423;28;20521;-27
2023/05/12 01:15:47;;;;;;;82.40;29.58;;;10.90;99.90;;;;;;5096227;28;20374;-26
2023/05/12 01:18:14;;;;;;;79.47;30.35;;;10.80;99.90;;;;;;5094436;28;20044;-26
2023/05/12 01:20:43;;;;;;;84.82;30.23;;;10.90;99.90;;;;;;5095287;28;20052;-27
2023/05/12 01:23:10;;;;;;;68.35;29.70;;;10.90;99.90;;;;;;5096128;28;20059;-26
2023/05/12 01:25:38;;;;;;;68.13;26.17;;;10.90;99.90;;;;;;5095419;28;20052;-27
2023/05/12 01:28:04;;;;;;;77.80;28.50;;;10.90;99.90;;;;;;5095127;28;20078;-27
2023/05/12 01:30:31;;;;;;;65.72;24.60;;;10.90;99.90;;;;;;5095149;28;20051;-28
2023/05/12 01:32:57;;;;;;;72.85;28.52;;;11.00;99.90;;;;;;5095038;28;20089;-27
2023/05/12 01:35:23;;;;;;;78.00;26.23;;;10.90;99.90;;;;;;5095218;28;20139;-27
2023/05/12 01:37:48;;;;;;;65.00;25.83;;;11.00;99.90;;;;;;5093790;28;20130;-26
2023/05/12 01:40:15;;;;;;;83.95;27.27;;;11.10;99.90;;;;;;5094608;28;20051;-27
2023/05/12 01:42:41;;;;;;;74.43;26.70;;;11.10;99.90;;;;;;5094877;28;20048;-27
2023/05/12 01:45:08;;;;;;;79.47;28.67;;;11.10;99.90;;;;;;5095327;28;20126;-26
2023/05/12 01:47:33;;;;;;;79.20;28.50;;;11.10;99.90;;;;;;5094774;28;20535;-27
2023/05/12 01:49:59;;;;;;;66.70;27.08;;;11.10;99.90;;;;;;5094323;28;20048;-27
2023/05/12 01:52:25;;;;;;;67.43;27.02;;;11.10;99.90;;;;;;5094773;28;20050;-27
2023/05/12 01:54:50;;;;;;;73.70;28.52;;;11.10;99.90;;;;;;5094666;28;20047;-26
2023/05/12 01:57:17;;;;;;;63.92;27.02;;;11.20;99.90;;;;;;5095432;28;20363;-27
2023/05/12 01:59:43;;;;;;;71.88;28.17;;;11.30;99.90;;;;;;5094240;28;20094;-27
2023/05/12 02:02:08;;;;;;;68.00;28.67;;;11.20;99.90;;;;;;5094489;28;20052;-27
2023/05/12 02:04:34;;;;;;;66.40;28.77;;;11.20;99.90;;;;;;5094422;28;20051;-27
2023/05/12 02:07:00;;;;;;;67.35;28.65;;;11.30;99.90;;;;;;5094421;28;20048;-27
2023/05/12 02:09:26;;;;;;;73.05;29.65;;;11.20;99.90;;;;;;5093442;28;20036;-27
2023/05/12 02:11:52;;;;;;;78.53;32.15;;;11.30;99.90;;;;;;5093132;28;20051;-27
2023/05/12 02:14:18;;;;;;;68.82;29.52;;;11.20;99.90;;;;;;5094290;28;20116;-27
2023/05/12 02:16:44;;;;;;;71.95;30.50;;;11.20;99.90;;;;;;5094232;28;20083;-27
2023/05/12 02:19:09;;;;;;;84.28;32.22;;;11.20;99.90;;;;;;5094762;28;20040;-27
2023/05/12 02:21:35;;;;;;;85.75;31.58;;;11.30;99.90;;;;;;5092982;28;20044;-27
2023/05/12 02:24:01;;;;;;;83.25;33.33;;;11.30;99.90;;;;;;5094061;28;20050;-27
2023/05/12 02:26:26;;;;;;;76.00;32.47;;;11.30;99.90;;;;;;5092969;28;20048;-27
2023/05/12 02:28:52;;;;;;;78.70;32.42;;;11.30;99.90;;;;;;5094060;28;20532;-27
2023/05/12 02:31:18;;;;;;;92.65;34.63;;;11.30;99.90;;;;;;5094594;28;20497;-27
2023/05/12 02:33:43;;;;;;;87.93;34.40;;;11.20;99.90;;;;;;5094011;28;20040;-27
2023/05/12 02:36:09;;;;;;;77.43;32.13;;;11.30;99.90;;;;;;5094041;28;20060;-27
2023/05/12 02:38:35;;;;;;;84.82;32.63;;;11.30;99.90;;;;;;5093934;28;20052;-27
2023/05/12 02:41:01;;;;;;;83.85;33.65;;;11.30;99.90;;;;;;5093904;28;20105;-27
2023/05/12 02:43:26;;;;;;;72.32;30.83;;;11.20;99.90;;;;;;5093453;28;20051;-27
2023/05/12 02:45:53;;;;;;;76.63;30.45;;;11.30;99.90;;;;;;5094092;28;20092;-28
2023/05/12 02:48:19;;;;;;;70.05;29.98;;;11.20;99.90;;;;;;5093523;28;20383;-26
2023/05/12 02:50:44;;;;;;;79.07;31.65;;;11.30;99.90;;;;;;5093804;28;20051;-27
2023/05/12 02:53:10;;;;;;;78.15;31.00;;;11.30;99.90;;;;;;5092772;28;20443;-26
2023/05/12 02:55:36;;;;;;;82.40;31.05;;;11.30;99.90;;;;;;5094351;28;20036;-27
2023/05/12 02:58:02;;;;;;;80.45;31.88;;;11.20;99.90;;;;;;5093743;28;20406;-27
2023/05/12 03:00:28;;;;;;;84.28;32.28;;;11.20;99.90;;;;;;5092464;28;20048;-26
2023/05/12 03:02:53;;;;;;;83.22;31.33;;;11.20;99.90;;;;;;5093691;28;20083;-27
2023/05/12 03:05:19;;;;;;;84.80;32.72;;;11.20;99.90;;;;;;5093623;28;20040;-27
2023/05/12 03:07:48;;;;;;;76.60;29.45;;;11.20;99.90;;;;;;5093046;28;20052;-27
2023/05/12 03:10:14;;;;;;;79.63;30.02;;;11.20;99.90;;;;;;5092923;28;20048;-27
2023/05/12 03:12:40;;;;;;;75.63;30.20;;;11.20;99.90;;;;;;5095646;28;20087;-27
2023/05/12 03:15:07;;;;;;;86.22;31.40;;;11.20;99.90;;;;;;5096760;28;20496;-27
2023/05/12 03:17:33;;;;;;;88.68;30.90;;;11.10;99.90;;;;;;5097270;28;20044;-27
2023/05/12 03:19:59;;;;;;;85.40;32.33;;;11.10;99.90;;;;;;5097904;28;20055;-27
2023/05/12 03:22:25;;;;;;;84.95;31.55;;;11.20;99.90;;;;;;5097615;28;20044;-27
2023/05/12 03:24:51;;;;;;;86.85;31.20;;;11.20;99.90;;;;;;5097466;28;20569;-27
2023/05/12 03:27:17;;;;;;;99.57;32.58;;;11.10;99.90;;;;;;5097466;28;20051;-29
2023/05/12 03:29:42;;;;;;;77.10;29.92;;;11.10;99.90;;;;;;5098005;28;20117;-27
2023/05/12 03:32:08;;;;;;;96.25;32.85;;;11.10;99.90;;;;;;5097434;28;20044;-27
2023/05/12 03:34:34;;;;;;;89.32;31.10;;;11.10;99.90;;;;;;5097114;28;20060;-27
2023/05/12 03:37:00;;;;;;;89.68;32.22;;;11.20;99.90;;;;;;5098099;28;20052;-27
2023/05/12 03:39:26;;;;;;;80.00;30.05;;;11.20;99.90;;;;;;5096304;28;20040;-27
2023/05/12 03:41:51;;;;;;;92.57;31.90;;;11.10;99.90;;;;;;5097252;28;20181;-28
2023/05/12 03:44:17;;;;;;;87.15;33.05;;;11.10;99.90;;;;;;5097023;28;20040;-28
2023/05/12 03:46:43;;;;;;;89.03;31.90;;;11.00;99.90;;;;;;5079880;28;20479;-27
2023/05/12 03:49:08;;;;;;;94.25;32.10;;;11.10;99.90;;;;;;5097861;28;20141;-28
2023/05/12 03:51:34;;;;;;;105.68;34.50;;;11.10;99.90;;;;;;5096912;28;20390;-28
2023/05/12 03:54:00;;;;;;;107.38;32.53;;;11.10;99.90;;;;;;5096946;28;20129;-27
2023/05/12 03:56:27;;;;;;;86.72;30.95;;;11.20;99.90;;;;;;5096016;28;20075;-27
2023/05/12 03:58:53;;;;;;;114.55;33.50;;;11.10;99.90;;;;;;5096949;28;20048;-28
2023/05/12 04:01:18;;;;;;;97.45;32.88;;;11.10;99.90;;;;;;5096849;28;20389;-27
2023/05/12 04:03:44;;;;;;;88.75;32.30;;;11.10;99.90;;;;;;5096735;28;20039;-27
2023/05/12 04:06:10;;;;;;;89.38;32.28;;;11.10;99.90;;;;;;5096809;28;20097;-27
2023/05/12 04:08:36;;;;;;;95.43;32.95;;;11.10;99.90;;;;;;5095993;28;20516;-28
2023/05/12 04:11:02;;;;;;;101.07;34.55;;;11.20;99.90;;;;;;5097185;28;20051;-27
2023/05/12 04:13:30;;;;;;;105.05;32.40;;;11.20;99.90;;;;;;5096616;28;20127;-27
2023/05/12 04:16:00;;;;;;;88.13;32.97;;;11.30;99.90;;;;;;5095895;28;20126;-27
2023/05/12 04:18:26;;;;;;;93.25;31.75;;;11.30;99.90;;;;;;5095382;28;20044;-27
2023/05/12 04:20:55;;;;;;;98.60;33.83;;;11.30;99.90;;;;;;5096445;28;20036;-27
2023/05/12 04:23:21;;;;;;;97.85;32.05;;;11.30;99.90;;;;;;5096204;28;20102;-27
2023/05/12 04:25:47;;;;;;;98.70;33.45;;;11.30;99.90;;;;;;5096588;28;20532;-28
2023/05/12 04:28:13;;;;;;;106.50;35.10;;;11.40;99.90;;;;;;5096324;28;20048;-27
2023/05/12 04:30:40;;;;;;;95.85;34.55;;;11.30;99.90;;;;;;5097076;28;20048;-29
2023/05/12 04:33:07;;;;;;;97.35;33.80;;;11.40;99.90;;;;;;5096222;28;20036;-28
2023/05/12 04:35:32;;;;;;;99.30;35.15;;;11.50;99.90;;;;;;5094990;28;20051;-27
2023/05/12 04:38:00;;;;;;;91.00;32.60;;;11.50;99.90;;;;;;5096189;28;20044;-28
2023/05/12 04:40:26;;;;;;;108.47;34.55;;;11.50;99.90;;;;;;5095543;28;20087;-28
2023/05/12 04:42:52;;;;;;;101.53;34.60;;;11.50;99.90;;;;;;5096065;28;20130;-28
2023/05/12 04:45:17;;;;;;;92.88;32.95;;;11.60;99.90;;;;;;5095906;28;20459;-27
2023/05/12 04:47:43;;;;;;;86.97;33.33;;;11.60;99.90;;;;;;5095951;28;20048;-27
2023/05/12 04:50:09;;;;;;;105.10;34.35;;;11.60;99.90;;;;;;5095915;28;20040;-27
2023/05/12 04:52:36;;;;;;;89.72;32.25;;;11.60;99.90;;;;;;5095721;28;20052;-27
2023/05/12 04:55:01;;;;;;;99.45;32.95;;;11.70;99.90;;;;;;5096538;28;20411;-27
2023/05/12 04:57:27;;;;;;;94.85;33.97;;;11.80;99.90;;;;;;5095376;28;20095;-27
2023/05/12 04:59:53;;;;;;;102.65;35.08;;;11.80;99.90;;;;;;5096305;28;20040;-27
2023/05/12 05:02:18;;;;;;;101.40;33.65;;;11.90;99.90;;;;;;5095919;28;20045;-27
2023/05/12 05:04:44;;;;;;;98.88;35.55;;;12.00;99.90;;;;;;5096651;28;20044;-28
2023/05/12 05:07:10;;;;;;;86.30;33.33;;;12.00;99.90;;;;;;5094629;28;20533;-28
2023/05/12 05:09:35;;;;;;;93.45;33.95;;;12.10;99.90;;;;;;5094585;28;20135;-29
2023/05/12 05:12:01;;;;;;;94.80;33.47;;;12.20;99.90;;;;;;5095508;28;20055;-27
2023/05/12 05:14:27;;;;;;;88.47;31.95;;;12.30;99.90;;;;;;5095482;28;20482;-27
2023/05/12 05:16:53;;;;;;;76.85;32.63;;;12.30;99.90;;;;;;5095657;28;20047;-27
2023/05/12 05:19:19;;;;;;;82.68;31.05;;;12.40;99.90;;;;;;5095945;28;20535;-28
2023/05/12 05:21:45;;;;;;;80.47;31.52;;;12.40;99.90;;;;;;5095606;28;20127;-27
2023/05/12 05:24:10;;;;;;;88.60;32.45;;;12.40;99.90;;;;;;5094187;28;20503;-27
2023/05/12 05:26:36;;;;;;;83.55;33.58;;;12.50;99.90;;;;;;5095771;28;20040;-27
2023/05/12 05:29:03;;;;;;;76.38;30.38;;;12.50;99.90;;;;;;5095220;28;20052;-27
2023/05/12 05:31:29;;;;;;;77.20;30.17;;;12.60;99.90;;;;;;5095648;28;20052;-27
2023/05/12 05:33:55;;;;;;;79.20;31.63;;;12.60;99.90;;;;;;5094102;28;20047;-27
2023/05/12 05:36:25;;;;;;;77.05;31.20;;;12.60;99.90;;;;;;5076176;28;20052;-27
2023/05/12 05:38:51;;;;;;;61.42;27.80;;;12.60;99.90;;;;;;5095818;28;20048;-27
2023/05/12 05:41:17;;;;;;;77.93;31.40;;;12.70;99.90;;;;;;5094922;28;20052;-27
2023/05/12 05:43:43;;;;;;;76.45;30.95;;;12.70;99.90;;;;;;5094771;28;20054;-28
2023/05/12 05:46:08;;;;;;;73.45;30.20;;;12.70;99.90;;;;;;5094813;28;20477;-27
2023/05/12 05:48:35;;;;;;;77.57;31.13;;;12.70;99.90;;;;;;5093795;28;20040;-27
2023/05/12 05:51:01;;;;;;;72.15;30.35;;;12.70;99.90;;;;;;5095206;28;20052;-27
2023/05/12 05:53:27;;;;;;;73.05;29.77;;;12.70;99.90;;;;;;5094708;28;20047;-27
2023/05/12 05:55:53;;;;;;;72.57;30.38;;;12.70;99.90;;;;;;5094615;28;20047;-27
2023/05/12 05:58:18;;;;;;;81.53;32.42;;;12.70;99.90;;;;;;5093915;28;20047;-28
2023/05/12 06:00:45;;;;;;;70.18;30.52;;;12.80;99.90;;;;;;5094578;28;20497;-27
2023/05/12 06:03:11;;;;;;;73.50;30.65;;;12.70;99.90;;;;;;5094481;28;20546;-27
2023/05/12 06:05:37;;;;;;;69.53;29.65;;;12.80;99.90;;;;;;5094402;28;20048;-27
2023/05/12 06:08:04;;;;;;;78.43;31.25;;;12.70;99.90;;;;;;5094417;28;20055;-27
2023/05/12 06:10:30;;;;;;;73.65;33.00;;;12.80;99.90;;;;;;5094055;28;20050;-27
2023/05/12 06:12:55;;;;;;;70.78;30.52;;;12.80;99.90;;;;;;5093866;28;20044;-27
2023/05/12 06:15:21;;;;;;;63.75;30.27;;;13.00;99.90;;;;;;5094229;28;20048;-27
2023/05/12 06:17:47;;;;;;;58.70;29.90;;;12.90;99.90;;;;;;5093072;28;20044;-27
2023/05/12 06:20:13;;;;;;;74.57;32.97;;;13.00;99.90;;;;;;5095000;28;20418;-27
2023/05/12 06:22:41;;;;;;;69.07;31.67;;;13.10;99.90;;;;;;5094129;28;20089;-27
2023/05/12 06:25:07;;;;;;;73.78;32.45;;;13.20;99.90;;;;;;5092916;28;20102;-27
2023/05/12 06:27:32;;;;;;;69.03;30.40;;;13.20;99.90;;;;;;5094098;28;20040;-27
2023/05/12 06:29:58;;;;;;;61.90;29.85;;;13.30;99.90;;;;;;5094891;28;20054;-27
2023/05/12 06:32:24;;;;;;;57.42;31.08;;;13.40;99.90;;;;;;5094309;28;20547;-28
2023/05/12 06:34:50;;;;;;;53.35;29.65;;;13.50;99.90;;;;;;5093893;28;20048;-27
2023/05/12 06:37:15;;;;;;;55.95;28.42;;;13.50;99.90;;;;;;5093943;28;20059;-27
2023/05/12 06:39:41;;;;;;;66.35;31.92;;;13.60;99.90;;;;;;5093646;28;20087;-27
2023/05/12 06:42:07;;;;;;;52.92;29.70;;;13.90;99.90;;;;;;5094711;28;20137;-28
2023/05/12 06:44:32;;;;;;;61.45;30.77;;;14.00;99.90;;;;;;5093781;28;20397;-27
2023/05/12 06:46:58;;;;;;;56.70;30.13;;;14.30;99.90;;;;;;5094399;28;20130;-27
2023/05/12 06:49:24;;;;;;;52.58;29.58;;;14.40;99.90;;;;;;5094076;28;20050;-28
2023/05/12 06:51:50;;;;;;;47.38;27.15;;;14.50;99.90;;;;;;5094052;28;20400;-27
2023/05/12 06:54:15;;;;;;;47.10;26.80;;;14.60;99.90;;;;;;5092660;28;20055;-27
2023/05/12 06:56:41;;;;;;;48.80;27.92;;;14.60;99.90;;;;;;5093680;28;20048;-27
2023/05/12 06:59:07;;;;;;;52.13;27.48;;;14.70;99.90;;;;;;5093604;28;20052;-28
2023/05/12 07:01:33;;;;;;;45.95;26.23;;;14.90;99.90;;;;;;5093629;28;20100;-27
2023/05/12 07:03:58;;;;;;;43.28;26.42;;;15.00;99.90;;;;;;5093528;28;20036;-28
2023/05/12 07:06:28;;;;;;;38.55;25.35;;;15.10;99.90;;;;;;5093242;28;20546;-27
2023/05/12 07:08:57;;;;;;;55.35;29.30;;;15.20;99.90;;;;;;5093541;28;20067;-27
2023/05/12 07:11:22;;;;;;;47.13;26.45;;;15.30;99.90;;;;;;5094016;28;20051;-27
2023/05/12 07:13:49;;;;;;;44.92;26.30;;;15.50;99.90;;;;;;5094004;28;20048;-27
2023/05/12 07:16:16;;;;;;;41.15;26.52;;;15.50;99.90;;;;;;5093487;28;20036;-27
2023/05/12 07:18:42;;;;;;;44.70;27.42;;;15.60;99.90;;;;;;5093468;28;20044;-27
2023/05/12 07:21:08;;;;;;;41.00;26.05;;;15.70;99.90;;;;;;5093431;28;20080;-27
2023/05/12 07:23:35;;;;;;;39.75;26.15;;;15.70;99.90;;;;;;5075413;28;20055;-27
2023/05/12 07:26:03;;;;;;;40.20;26.02;;;15.70;99.90;;;;;;5093202;28;20575;-27
2023/05/12 07:28:31;;;;;;;41.85;27.63;;;15.80;99.90;;;;;;5093262;28;20051;-27
2023/05/12 07:31:00;;;;;;;39.78;27.70;;;15.70;99.90;;;;;;5093047;28;20505;-27
2023/05/12 07:33:28;;;;;;;36.45;27.77;;;15.80;99.90;;;;;;5094177;28;20131;-27
2023/05/12 07:35:55;;;;;;;41.85;28.35;;;15.80;99.90;;;;;;5091895;28;20490;-28
2023/05/12 07:38:21;;;;;;;35.05;27.70;;;15.80;99.90;;;;;;5093881;28;20051;-27
2023/05/12 07:40:46;;;;;;;48.38;29.92;;;15.90;99.90;;;;;;5093203;28;20051;-27
2023/05/12 07:43:12;;;;;;;38.05;27.17;;;16.10;99.90;;;;;;5093559;28;20474;-27
2023/05/12 07:45:38;;;;;;;53.15;28.77;;;16.30;99.90;;;;;;5093776;28;20039;-27
2023/05/12 07:48:04;;;;;;;42.35;29.88;;;16.40;99.90;;;;;;5093566;28;20127;-27
2023/05/12 07:50:29;;;;;;;42.22;30.13;;;16.60;99.90;;;;;;5092050;28;20040;-27
2023/05/12 07:52:55;;;;;;;39.75;30.10;;;16.80;99.90;;;;;;5091918;28;20394;-27
2023/05/12 07:55:22;;;;;;;41.40;29.20;;;16.90;99.90;;;;;;5092855;28;20040;-26
2023/05/12 07:57:51;;;;;;;35.60;27.83;;;17.20;99.90;;;;;;5093584;28;20048;-27
2023/05/12 08:00:17;;;;;;;35.90;28.05;;;17.80;99.90;;;;;;5097420;28;20052;-26
2023/05/12 08:02:43;;;;;;;35.88;28.02;;;17.80;99.90;;;;;;5095787;28;20055;-26
2023/05/12 08:05:10;;;;;;;40.92;27.48;;;18.00;99.90;;;;;;5095587;28;20040;-26
2023/05/12 08:07:37;;;;;;;33.05;26.73;;;18.10;99.90;;;;;;5097479;28;20427;-26
2023/05/12 08:10:06;;;;;;;35.05;27.95;;;18.20;99.90;;;;;;5095632;28;20052;-26
2023/05/12 08:12:32;;;;;;;37.22;29.30;;;18.40;99.90;;;;;;5095669;28;20470;-26
2023/05/12 08:14:58;;;;;;;33.45;26.90;;;18.40;99.90;;;;;;5095900;28;20056;-26
2023/05/12 08:17:24;;;;;;;36.90;26.60;;;18.50;99.90;;;;;;5097041;28;20097;-26
2023/05/12 08:19:50;;;;;;;34.13;26.77;;;18.50;99.90;;;;;;5096534;28;20044;-26
2023/05/12 08:22:16;;;;;;;34.85;26.17;;;18.40;99.90;;;;;;5097308;28;20090;-26
2023/05/12 08:24:42;;;;;;;35.17;27.48;;;18.30;99.90;;;;;;5096327;28;20440;-26
2023/05/12 08:27:07;;;;;;;38.80;29.23;;;18.40;99.90;;;;;;5079251;28;20093;-26
2023/05/12 08:29:33;;;;;;;36.42;27.92;;;18.70;99.90;;;;;;5095060;28;20130;-26
2023/05/12 08:31:59;;;;;;;34.17;28.10;;;18.90;99.90;;;;;;5096245;28;20083;-26
2023/05/12 08:34:25;;;;;;;29.73;26.13;;;19.10;99.90;;;;;;5096031;28;20091;-26
2023/05/12 08:36:53;;;;;;;33.30;26.15;;;19.30;99.90;;;;;;5096974;28;20052;-26
2023/05/12 08:39:19;;;;;;;29.83;25.55;;;19.50;99.90;;;;;;5096199;28;20379;-25
2023/05/12 08:42:12;;;;;;;31.83;25.95;;;19.60;99.90;;;;;;5095674;28;20050;-26
2023/05/12 08:44:38;;;;;;;29.83;24.40;;;19.60;45.10;;;;;;5079949;28;20056;-26
2023/05/12 08:47:08;;;;;;;30.75;25.40;;;19.70;1.00;;;;;;5096086;28;20067;-26
2023/05/12 08:49:35;;;;;;;29.73;25.40;;;20.00;1.00;;;;;;5094952;28;20048;-26
2023/05/12 08:52:01;;;;;;;33.80;26.48;;;20.30;1.00;;;;;;5078228;28;20044;-25
2023/05/12 08:54:28;;;;;;;29.02;24.25;;;20.60;1.00;;;;;;5094526;28;20044;-26
2023/05/12 08:56:55;;;;;;;27.75;24.33;;;21.00;99.90;;;;;;5078423;28;20048;-26
2023/05/12 08:59:22;;;;;;;28.15;23.75;;;21.30;99.90;;;;;;5094524;28;20052;-26
2023/05/12 09:01:49;;;;;;;25.40;22.65;;;21.50;89.60;;;;;;5078542;28;20048;-26
2023/05/12 09:04:16;;;;;;;26.45;22.95;;;21.30;1.00;;;;;;5094247;28;20051;-26
2023/05/12 09:06:45;;;;;;;26.83;21.65;;;21.30;1.00;;;;;;5095421;28;20059;-26
2023/05/12 09:09:16;;;;;;;23.15;19.75;;;21.40;99.90;;;;;;5094972;28;20040;-26
2023/05/12 09:11:42;;;;;;;22.58;19.58;;;21.70;99.90;;;;;;5095150;28;20116;-27
2023/05/12 09:14:13;;;;;;;23.35;20.30;;;22.20;99.90;;;;;;5077955;28;20044;-26
2023/05/12 09:16:42;;;;;;;21.77;19.45;;;22.60;1.00;;;;;;5095474;28;20119;-26
2023/05/12 09:19:08;;;;;;;22.45;20.20;;;23.20;99.90;;;;;;5077256;28;20133;-26
2023/05/12 09:21:34;;;;;;;21.20;18.02;;;23.20;99.90;;;;;;5077265;28;20095;-26
2023/05/12 09:24:05;;;;;;;19.30;17.23;;;23.40;99.90;;;;;;5095148;28;20101;-26
2023/05/12 09:26:44;;;;;;;17.10;15.30;;;23.90;72.80;;;;;;5095252;28;20156;-27
2023/05/12 09:29:10;;;;;;;19.73;15.18;;;24.40;1.00;;;;;;5096061;28;20090;-26
2023/05/12 09:31:36;;;;;;;21.40;15.98;;;25.00;99.90;;;;;;5095197;28;20084;-26
2023/05/12 09:34:07;;;;;;;17.95;15.43;;;25.30;1.00;;;;;;5095665;28;20073;-26
2023/05/12 09:36:33;;;;;;;15.43;13.73;;;25.50;99.90;;;;;;5095661;28;20051;-27
2023/05/12 09:39:03;;;;;;;17.20;15.27;;;25.50;99.90;;;;;;5076840;28;20398;-26
2023/05/12 09:41:29;;;;;;;15.18;13.60;;;25.30;62.10;;;;;;5094799;28;20075;-26
2023/05/12 09:43:55;;;;;;;16.15;14.45;;;25.50;99.90;;;;;;5093830;28;20040;-26
2023/05/12 09:46:23;;;;;;;15.57;13.40;;;25.80;1.00;;;;;;5094844;28;20054;-26
2023/05/12 09:48:49;;;;;;;16.85;13.73;;;25.90;1.00;;;;;;5095292;28;20435;-26
2023/05/12 09:51:18;;;;;;;14.15;12.73;;;26.30;1.00;;;;;;5094673;28;20087;-26
2023/05/12 09:53:45;;;;;;;15.13;13.63;;;25.90;99.90;;;;;;5077668;28;20051;-26
2023/05/12 09:56:15;;;;;;;16.13;14.52;;;25.20;99.90;;;;;;5094705;28;20048;-26
2023/05/12 09:58:43;;;;;;;15.40;13.85;;;24.80;1.00;;;;;;5093918;28;20048;-26
2023/05/12 10:01:14;;;;;;;15.68;12.55;;;24.30;1.00;;;;;;5094625;28;20437;-26
2023/05/12 10:03:46;;;;;;;18.50;12.10;;;23.80;99.90;;;;;;5094514;28;20105;-26
2023/05/12 10:06:19;;;;;;;15.75;12.80;;;23.70;99.90;;;;;;5093608;28;20052;-25
2023/05/12 10:09:09;;;;;;;11.32;10.27;;;23.60;99.90;;;;;;5094352;28;20058;-25
2023/05/12 10:11:36;;;;;;;10.40;9.32;;;23.90;99.90;;;;;;5094218;28;20044;-26
2023/05/12 10:14:02;;;;;;;12.38;10.00;;;24.40;99.90;;;;;;5073267;28;20071;-26
2023/05/12 10:16:28;;;;;;;11.65;9.13;;;25.10;99.90;;;;;;5074858;28;20080;-26
2023/05/12 10:18:55;;;;;;;10.20;9.20;;;25.60;69.60;;;;;;5072372;28;20403;-26
2023/05/12 10:21:23;;;;;;;9.38;8.30;;;25.90;1.00;;;;;;5073795;28;20080;-26
2023/05/12 10:23:51;;;;;;;11.20;8.82;;;26.30;1.00;;;;;;5072642;28;20498;-26
2023/05/12 10:26:17;;;;;;;13.90;8.23;;;26.70;1.00;;;;;;5073916;28;20048;-26
2023/05/12 10:28:44;;;;;;;8.48;7.63;;;26.90;1.00;;;;;;5073196;28;20048;-25
2023/05/12 10:31:10;;;;;;;8.43;7.63;;;26.80;1.00;;;;;;5072786;28;20077;-26
2023/05/12 10:33:36;;;;;;;10.50;8.85;;;26.40;99.90;;;;;;5073509;28;20393;-26
2023/05/12 10:36:02;;;;;;;12.57;9.73;;;25.70;99.90;;;;;;5074222;28;20056;-25
2023/05/12 10:38:35;;;;;;;11.82;10.57;;;25.00;1.00;;;;;;5055482;28;20429;-26
2023/05/12 10:41:04;;;;;;;11.75;10.48;;;25.10;1.00;;;;;;5073330;28;20048;-25
2023/05/12 10:43:40;;;;;;;14.68;10.93;;;25.40;1.00;;;;;;5073571;28;20049;-26
2023/05/12 10:46:16;;;;;;;12.57;10.88;;;25.70;99.90;;;;;;5072468;28;20131;-26
2023/05/12 10:48:59;;;;;;;14.93;13.13;;;26.10;99.90;;;;;;5082301;28;20127;-26
2023/05/12 10:51:30;;;;;;;13.43;11.60;;;26.50;99.90;;;;;;5092310;28;20051;-26
2023/05/12 10:54:06;;;;;;;16.13;13.55;;;26.80;99.90;;;;;;5086646;28;20521;-26
2023/05/12 10:56:38;;;;;;;17.90;12.85;;;27.20;99.90;;;;;;5055948;28;20096;-26
2023/05/12 10:59:12;;;;;;;14.95;13.27;;;27.50;99.90;;;;;;5073563;28;20045;-26
2023/05/12 11:01:39;;;;;;;14.20;12.70;;;27.40;99.90;;;;;;5072590;28;20178;-26
2023/05/12 11:04:12;;;;;;;14.45;13.00;;;27.70;99.90;;;;;;5073457;28;20044;-26
2023/05/12 11:06:39;;;;;;;15.20;13.02;;;27.60;99.90;;;;;;5073513;28;20048;-26
2023/05/12 11:09:05;;;;;;;14.90;11.60;;;27.20;99.90;;;;;;5073361;28;20059;-26
2023/05/12 11:11:32;;;;;;;15.73;12.10;;;27.20;99.90;;;;;;5073205;28;20095;-25
2023/05/12 11:13:57;;;;;;;14.55;11.57;;;27.50;99.90;;;;;;5072981;28;20088;-25
2023/05/12 11:16:23;;;;;;;14.10;11.18;;;27.70;99.90;;;;;;5078542;28;20076;-25
2023/05/12 11:19:03;;;;;;;12.20;10.50;;;28.00;99.90;;;;;;5089839;28;20059;-26
2023/05/12 11:21:32;;;;;;;12.32;10.80;;;27.90;99.90;;;;;;5082089;28;20167;-26
2023/05/12 11:23:59;;;;;;;13.60;10.68;;;27.70;99.90;;;;;;5092577;28;20071;-26
2023/05/12 11:26:26;;;;;;;11.98;10.23;;;27.60;99.90;;;;;;5068723;28;20039;-26
2023/05/12 11:28:52;;;;;;;11.40;10.20;;;27.70;99.90;;;;;;5076288;28;20094;-26
2023/05/12 11:31:19;;;;;;;11.90;9.63;;;27.70;99.90;;;;;;5083975;28;20134;-26
2023/05/12 11:33:46;;;;;;;11.80;9.18;;;27.70;99.90;;;;;;5075215;28;20410;-26
2023/05/12 11:36:12;;;;;;;10.63;9.38;;;27.70;99.90;;;;;;5092552;28;20105;-26
2023/05/12 11:38:38;;;;;;;11.95;10.75;;;27.80;99.90;;;;;;5097306;28;20501;-26
2023/05/12 11:41:03;;;;;;;9.32;7.72;;;28.00;98.60;;;;;;5096169;28;20130;-26
2023/05/12 11:43:29;;;;;;;10.48;8.40;;;27.70;96.60;;;;;;5080202;28;20087;-26
2023/05/12 11:45:55;;;;;;;11.50;8.65;;;28.30;99.90;;;;;;5095353;28;20076;-26
2023/05/12 11:48:21;;;;;;;8.98;7.57;;;28.70;99.90;;;;;;5077498;28;20490;-26
2023/05/12 11:50:50;;;;;;;11.05;7.50;;;28.70;86.50;;;;;;5097028;28;20047;-26
2023/05/12 11:53:17;;;;;;;9.95;7.57;;;29.10;75.50;;;;;;5097807;28;20455;-26
2023/05/12 11:55:51;;;;;;;9.18;8.27;;;28.90;53.60;;;;;;5097313;28;20119;-26
2023/05/12 11:58:25;;;;;;;9.48;8.50;;;29.00;35.00;;;;;;5080506;28;20494;-26
2023/05/12 12:00:52;;;;;;;11.55;9.40;;;29.20;50.30;;;;;;5076622;28;20084;-26
2023/05/12 12:03:18;;;;;;;8.93;8.02;;;29.00;91.60;;;;;;5076594;28;20052;-26
2023/05/12 12:05:57;;;;;;;9.05;8.20;;;29.40;93.90;;;;;;5076385;28;20040;-26
2023/05/12 12:08:23;;;;;;;6.57;5.97;;;29.40;73.60;;;;;;5077843;28;20044;-26
2023/05/12 12:10:49;;;;;;;7.00;5.18;;;28.90;14.00;;;;;;5090160;28;20048;-26
2023/05/12 12:13:22;;;;;;;6.72;4.80;;;29.00;4.00;;;;;;5096661;28;20109;-26
2023/05/12 12:15:49;;;;;;;6.75;5.93;;;29.30;1.00;;;;;;5096697;28;20082;-26
2023/05/12 12:18:18;;;;;;;7.72;5.47;;;29.60;1.00;;;;;;5096555;28;20048;-26
2023/05/12 12:20:45;;;;;;;5.97;4.55;;;29.40;1.00;;;;;;5083682;28;20048;-26
2023/05/12 12:23:11;;;;;;;5.90;5.30;;;29.50;1.00;;;;;;5093223;28;20406;-26
2023/05/12 12:25:37;;;;;;;12.75;6.70;;;29.50;1.00;;;;;;5091368;28;20040;-26
2023/05/12 12:28:03;;;;;;;7.90;5.65;;;29.60;1.00;;;;;;5096330;28;20044;-26